sensor_id;sensor_type;location;lat;lon;timestamp;P1;durP1;ratioP1;P2;durP2;ratioP2
58512;SDS011;44302;47.914;10.642;2023-03-01T09:07:26;25.03;;;14.80;;
58512;SDS011;44302;47.914;10.642;2023-03-01T09:12:15;22.03;;;15.13;;
58512;SDS011;44302;47.914;10.642;2023-03-01T09:16:11;23.63;;;15.07;;
58512;SDS011;44302;47.914;10.642;2023-03-01T09:19:58;21.80;;;13.83;;
58512;SDS011;44302;47.914;10.642;2023-03-01T09:24:01;20.27;;;14.43;;
58512;SDS011;44302;47.914;10.642;2023-03-01T09:28:07;19.70;;;13.67;;
58512;SDS011;44302;47.914;10.642;2023-03-01T09:31:21;19.70;;;12.70;;
58512;SDS011;44302;47.914;10.642;2023-03-01T09:35:00;20.67;;;13.73;;
58512;SDS011;44302;47.914;10.642;2023-03-01T09:38:15;20.87;;;14.17;;
58512;SDS011;44302;47.914;10.642;2023-03-01T09:41:57;16.63;;;12.23;;
58512;SDS011;44302;47.914;10.642;2023-03-01T09:45:55;22.17;;;14.07;;
58512;SDS011;44302;47.914;10.642;2023-03-01T09:53:57;20.13;;;13.10;;
58512;SDS011;44302;47.914;10.642;2023-03-01T09:58:41;20.83;;;14.40;;
58512;SDS011;44302;47.914;10.642;2023-03-01T10:10:00;18.90;;;11.93;;
58512;SDS011;44302;47.914;10.642;2023-03-01T10:14:05;16.13;;;12.73;;
58512;SDS011;44302;47.914;10.642;2023-03-01T10:16:43;18.40;;;13.13;;
58512;SDS011;44302;47.914;10.642;2023-03-01T10:19:17;19.80;;;12.83;;
58512;SDS011;44302;47.914;10.642;2023-03-01T10:24:05;18.03;;;12.73;;
58512;SDS011;44302;47.914;10.642;2023-03-01T10:29:16;19.47;;;13.20;;
58512;SDS011;44302;47.914;10.642;2023-03-01T10:31:46;19.80;;;12.90;;
58512;SDS011;44302;47.914;10.642;2023-03-01T10:34:14;17.67;;;13.57;;
58512;SDS011;44302;47.914;10.642;2023-03-01T10:36:42;23.80;;;14.70;;
58512;SDS011;44302;47.914;10.642;2023-03-01T10:39:16;19.50;;;13.97;;
58512;SDS011;44302;47.914;10.642;2023-03-01T10:41:54;20.07;;;13.63;;
58512;SDS011;44302;47.914;10.642;2023-03-01T10:47:04;20.60;;;15.03;;
58512;SDS011;44302;47.914;10.642;2023-03-01T10:49:37;24.53;;;15.23;;
58512;SDS011;44302;47.914;10.642;2023-03-01T10:55:04;21.27;;;14.97;;
58512;SDS011;44302;47.914;10.642;2023-03-01T10:58:06;25.43;;;14.50;;
58512;SDS011;44302;47.914;10.642;2023-03-01T11:00:55;19.87;;;14.40;;
58512;SDS011;44302;47.914;10.642;2023-03-01T11:03:24;21.60;;;14.67;;
58512;SDS011;44302;47.914;10.642;2023-03-01T11:06:08;19.53;;;14.03;;
58512;SDS011;44302;47.914;10.642;2023-03-01T11:08:48;19.33;;;13.00;;
58512;SDS011;44302;47.914;10.642;2023-03-01T11:11:19;20.03;;;14.10;;
58512;SDS011;44302;47.914;10.642;2023-03-01T11:13:55;20.07;;;14.77;;
58512;SDS011;44302;47.914;10.642;2023-03-01T11:21:35;19.63;;;14.33;;
58512;SDS011;44302;47.914;10.642;2023-03-01T11:24:25;21.33;;;14.43;;
58512;SDS011;44302;47.914;10.642;2023-03-01T11:27:20;20.10;;;13.70;;
58512;SDS011;44302;47.914;10.642;2023-03-01T11:29:54;21.23;;;15.43;;
58512;SDS011;44302;47.914;10.642;2023-03-01T11:32:28;19.57;;;14.50;;
58512;SDS011;44302;47.914;10.642;2023-03-01T11:35:44;22.03;;;14.90;;
58512;SDS011;44302;47.914;10.642;2023-03-01T11:48:57;20.63;;;14.33;;
58512;SDS011;44302;47.914;10.642;2023-03-01T11:52:28;21.43;;;14.60;;
58512;SDS011;44302;47.914;10.642;2023-03-01T12:08:46;21.77;;;14.33;;
58512;SDS011;44302;47.914;10.642;2023-03-01T12:19:15;20.70;;;15.00;;
58512;SDS011;44302;47.914;10.642;2023-03-01T12:41:09;19.33;;;14.50;;
58512;SDS011;44302;47.914;10.642;2023-03-01T12:49:44;21.93;;;15.70;;
58512;SDS011;44302;47.914;10.642;2023-03-01T12:54:59;20.30;;;14.40;;
58512;SDS011;44302;47.914;10.642;2023-03-01T12:57:33;23.30;;;16.10;;
58512;SDS011;44302;47.914;10.642;2023-03-01T13:00:22;25.07;;;16.03;;
58512;SDS011;44302;47.914;10.642;2023-03-01T13:03:00;22.40;;;15.20;;
58512;SDS011;44302;47.914;10.642;2023-03-01T13:05:42;20.43;;;15.03;;
58512;SDS011;44302;47.914;10.642;2023-03-01T13:08:27;20.10;;;15.03;;
58512;SDS011;44302;47.914;10.642;2023-03-01T13:11:19;21.03;;;15.50;;
58512;SDS011;44302;47.914;10.642;2023-03-01T13:13:47;26.90;;;16.53;;
58512;SDS011;44302;47.914;10.642;2023-03-01T13:19:13;23.53;;;16.60;;
58512;SDS011;44302;47.914;10.642;2023-03-01T13:21:50;24.40;;;16.73;;
58512;SDS011;44302;47.914;10.642;2023-03-01T13:27:42;24.10;;;16.93;;
58512;SDS011;44302;47.914;10.642;2023-03-01T13:29:52;24.67;;;17.70;;
58512;SDS011;44302;47.914;10.642;2023-03-01T13:32:34;22.83;;;16.93;;
58512;SDS011;44302;47.914;10.642;2023-03-01T13:37:40;25.80;;;15.80;;
58512;SDS011;44302;47.914;10.642;2023-03-01T13:42:43;24.97;;;17.10;;
58512;SDS011;44302;47.914;10.642;2023-03-01T13:45:16;21.37;;;15.30;;
58512;SDS011;44302;47.914;10.642;2023-03-01T13:47:54;27.63;;;16.53;;
58512;SDS011;44302;47.914;10.642;2023-03-01T13:50:24;23.30;;;16.27;;
58512;SDS011;44302;47.914;10.642;2023-03-01T13:52:59;25.73;;;15.50;;
58512;SDS011;44302;47.914;10.642;2023-03-01T13:58:23;26.17;;;17.17;;
58512;SDS011;44302;47.914;10.642;2023-03-01T14:03:27;22.87;;;16.50;;
58512;SDS011;44302;47.914;10.642;2023-03-01T14:05:58;22.60;;;15.83;;
58512;SDS011;44302;47.914;10.642;2023-03-01T14:08:33;22.77;;;15.87;;
58512;SDS011;44302;47.914;10.642;2023-03-01T14:16:54;23.60;;;15.67;;
58512;SDS011;44302;47.914;10.642;2023-03-01T14:19:43;22.77;;;15.40;;
58512;SDS011;44302;47.914;10.642;2023-03-01T14:24:38;25.13;;;15.63;;
58512;SDS011;44302;47.914;10.642;2023-03-01T14:27:10;26.70;;;16.40;;
58512;SDS011;44302;47.914;10.642;2023-03-01T14:29:40;26.93;;;17.13;;
58512;SDS011;44302;47.914;10.642;2023-03-01T14:32:18;22.53;;;16.20;;
58512;SDS011;44302;47.914;10.642;2023-03-01T14:34:49;23.40;;;15.83;;
58512;SDS011;44302;47.914;10.642;2023-03-01T14:37:29;21.93;;;15.87;;
58512;SDS011;44302;47.914;10.642;2023-03-01T14:39:59;23.20;;;15.83;;
58512;SDS011;44302;47.914;10.642;2023-03-01T14:42:27;25.20;;;17.37;;
58512;SDS011;44302;47.914;10.642;2023-03-01T14:44:56;23.77;;;17.10;;
58512;SDS011;44302;47.914;10.642;2023-03-01T14:47:30;24.13;;;14.77;;
58512;SDS011;44302;47.914;10.642;2023-03-01T14:52:35;25.23;;;17.60;;
58512;SDS011;44302;47.914;10.642;2023-03-01T14:55:04;24.60;;;16.20;;
58512;SDS011;44302;47.914;10.642;2023-03-01T14:57:32;26.53;;;17.10;;
58512;SDS011;44302;47.914;10.642;2023-03-01T14:59:58;25.03;;;16.50;;
58512;SDS011;44302;47.914;10.642;2023-03-01T15:02:30;25.13;;;17.33;;
58512;SDS011;44302;47.914;10.642;2023-03-01T15:04:58;24.90;;;16.57;;
58512;SDS011;44302;47.914;10.642;2023-03-01T15:07:28;24.73;;;17.00;;
58512;SDS011;44302;47.914;10.642;2023-03-01T15:10:00;27.13;;;16.13;;
58512;SDS011;44302;47.914;10.642;2023-03-01T15:14:54;24.77;;;16.77;;
58512;SDS011;44302;47.914;10.642;2023-03-01T15:17:31;24.37;;;16.43;;
58512;SDS011;44302;47.914;10.642;2023-03-01T15:19:57;26.23;;;16.97;;
58512;SDS011;44302;47.914;10.642;2023-03-01T15:22:24;24.10;;;16.70;;
58512;SDS011;44302;47.914;10.642;2023-03-01T15:24:51;26.63;;;18.33;;
58512;SDS011;44302;47.914;10.642;2023-03-01T15:27:18;26.60;;;17.63;;
58512;SDS011;44302;47.914;10.642;2023-03-01T15:29:51;24.40;;;16.70;;
58512;SDS011;44302;47.914;10.642;2023-03-01T15:32:25;23.77;;;17.83;;
58512;SDS011;44302;47.914;10.642;2023-03-01T15:35:32;25.93;;;17.57;;
58512;SDS011;44302;47.914;10.642;2023-03-01T15:40:56;26.77;;;16.73;;
58512;SDS011;44302;47.914;10.642;2023-03-01T15:43:40;21.83;;;15.83;;
58512;SDS011;44302;47.914;10.642;2023-03-01T15:46:25;20.43;;;14.70;;
58512;SDS011;44302;47.914;10.642;2023-03-01T15:48:58;27.40;;;17.63;;
58512;SDS011;44302;47.914;10.642;2023-03-01T15:51:30;25.23;;;17.93;;
58512;SDS011;44302;47.914;10.642;2023-03-01T15:54:05;25.20;;;17.80;;
58512;SDS011;44302;47.914;10.642;2023-03-01T15:56:36;26.37;;;17.20;;
58512;SDS011;44302;47.914;10.642;2023-03-01T15:59:01;23.97;;;16.77;;
58512;SDS011;44302;47.914;10.642;2023-03-01T16:01:27;28.33;;;17.93;;
58512;SDS011;44302;47.914;10.642;2023-03-01T16:03:56;29.57;;;18.63;;
58512;SDS011;44302;47.914;10.642;2023-03-01T16:06:23;27.37;;;16.70;;
58512;SDS011;44302;47.914;10.642;2023-03-01T16:08:49;27.17;;;17.33;;
58512;SDS011;44302;47.914;10.642;2023-03-01T16:11:18;26.63;;;18.93;;
58512;SDS011;44302;47.914;10.642;2023-03-01T16:13:45;28.50;;;17.90;;
58512;SDS011;44302;47.914;10.642;2023-03-01T16:16:11;24.30;;;16.97;;
